• Join FlightAware (Why Join?)
  • Login
  • US Flag 
12:08AM EDT


 

Airport Tracker/Info


-or-


 

Live Flight TrackerFlight Track Log ✈ FDX1730 ✈ 21-Jun-2013 ✈ KIND - KBWI

Flight Track Log - Related Links

Times and Time Zones

All times are in EDT time to prevent confusion due to time zone crossing. See the FDX1730 flight status page for this flight to view local times or setup timezone preferences in your user account.

Time Position Orientation Groundspeed Altitude Reporting Facility
EDT Latitude Longitude Course Direction KTS MPH feet Rate Location/Type
04:44AM 39.6990 -86.3080 228° Southwest 140 161 1,900  Level FlightAware
04:45AM 39.6830 -86.3230 216° Southwest 167 192 2,800 1,200 Climbing FlightAware
04:46AM 39.6480 -86.3430 204° Southwest 249 287 3,600 540 Climbing FlightAware
04:46AM 39.6220 -86.3430 180° South 249 287 3,600 4,860 Level FlightAware
04:46AM 39.6150 -86.2560 96° East 273 314 7,900 7,380 Climbing FlightAware
04:47AM 39.6160 -86.2310 87° East 274 315 8,900 3,000 Climbing FlightAware
04:47AM 39.6220 -86.1630 83° East 304 350 10,700 2,700 Climbing FlightAware
04:48AM 39.6310 -86.0820 82° East 334 384 12,600 2,640 Climbing FlightAware
04:49AM 39.6390 -85.9900 84° East 362 417 14,500 1,920 Climbing FlightAware
04:49AM 39.6480 -85.9100 82° East 401 461 15,200 1,800 Climbing FlightAware
04:50AM 39.6560 -85.8380 82° East 412 474 16,500 2,580 Climbing FlightAware
04:51AM 39.6710 -85.6980 82° East 424 488 18,900 2,520 Climbing FlightAware
04:52AM 39.6810 -85.5960 83° East 433 498 20,600 2,340 Climbing FlightAware
04:52AM 39.6930 -85.4790 82° East 441 507 22,200 2,160 Climbing FlightAware
04:53AM 39.7040 -85.3700 82° East 448 516 23,700 2,100 Climbing FlightAware
04:54AM 39.7140 -85.2650 83° East 455 524 25,000 1,800 Climbing FlightAware
04:54AM 39.7260 -85.1470 82° East 465 535 26,200 1,560 Climbing FlightAware
04:55AM 39.7370 -85.0300 83° East 471 542 27,300 1,320 Climbing FlightAware
04:56AM 39.7430 -84.9680 83° East 468 539 28,200 2,280 Climbing FlightAware
04:56AM 39.7550 -84.7970 85° East 457 526 30,500 2,640 Climbing FlightAware
04:57AM 39.7530 -84.6820 91° East 456 525 31,800 1,680 Climbing FlightAware
04:58AM 39.7500 -84.5680 92° East 453 521 32,900 1,500 Climbing FlightAware
04:59AM 39.7470 -84.4490 92° East 451 519 34,000 1,260 Climbing FlightAware
04:59AM 39.7450 -84.3410 91° East 452 520 34,700 600 Climbing FlightAware
05:00AM 39.7420 -84.1840 91° East 460 529 35,000 180 Climbing FlightAware
05:01AM 39.7390 -84.0770 92° East 457 526 35,000  Level FlightAware
05:02AM 39.7360 -83.9510 92° East 454 522 35,000  Level FlightAware
05:02AM 39.7330 -83.8510 92° East 451 519 35,000  Level FlightAware
05:03AM 39.7300 -83.7270 92° East 450 518 35,000  Level FlightAware
05:04AM 39.7260 -83.6080 92° East 450 518 35,000  Level FlightAware
05:04AM 39.7230 -83.4970 92° East 451 519 35,000  Level FlightAware
05:05AM 39.7180 -83.3510 93° East 453 521 35,000  Level FlightAware
05:06AM 39.7150 -83.2370 92° East 453 521 35,000  Level FlightAware
05:07AM 39.7110 -83.1170 92° East 453 521 35,000  Level FlightAware
05:07AM 39.7070 -83.0010 93° East 451 519 35,000  Level FlightAware
05:08AM 39.7030 -82.8980 93° East 450 518 35,000  Level FlightAware
05:09AM 39.6990 -82.7800 92° East 449 517 35,000  Level FlightAware
05:09AM 39.6950 -82.6750 93° East 449 517 35,000  Level FlightAware
05:10AM 39.6910 -82.5620 93° East 449 517 35,000  Level FlightAware
05:11AM 39.6860 -82.4380 93° East 450 518 35,000  Level FlightAware
05:12AM 39.6830 -82.3620 93° East 451 519 35,000  Level FlightAware
05:12AM 39.6770 -82.2140 93° East 451 519 35,000  Level FlightAware
05:13AM 39.6730 -82.1110 93° East 450 518 35,000  Level FlightAware
05:14AM 39.6680 -81.9950 93° East 449 517 35,000  Level FlightAware
05:14AM 39.6630 -81.8770 93° East 449 517 35,000  Level FlightAware
05:15AM 39.6580 -81.7610 93° East 449 517 35,000  Level FlightAware
05:16AM 39.6530 -81.6530 93° East 450 518 35,000  Level FlightAware
05:16AM 39.6480 -81.5460 93° East 450 518 35,000  Level FlightAware
05:17AM 39.6420 -81.4160 93° East 450 518 35,000  Level FlightAware
05:18AM 39.6370 -81.3140 94° East 451 519 35,000  Level FlightAware
05:19AM 39.6310 -81.2110 94° East 450 518 35,000  Level FlightAware
05:19AM 39.6250 -81.0760 93° East 452 520 35,000  Level FlightAware
05:20AM 39.6190 -80.9680 94° East 454 522 35,000  Level FlightAware
05:21AM 39.6130 -80.8510 94° East 455 524 35,000  Level FlightAware
05:21AM 39.6070 -80.7400 94° East 455 524 35,000  Level FlightAware
05:22AM 39.6010 -80.6310 94° East 455 524 35,000  Level FlightAware
05:23AM 39.5950 -80.5200 94° East 454 522 35,000  Level FlightAware
05:23AM 39.5880 -80.4030 94° East 454 522 35,000  Level FlightAware
05:24AM 39.5820 -80.2970 94° East 454 522 35,000  Level FlightAware
05:25AM 39.5750 -80.1700 94° East 454 522 35,000  Level FlightAware
05:26AM 39.5690 -80.0720 95° East 454 522 35,000  Level FlightAware
05:26AM 39.5620 -79.9580 95° East 455 524 35,000  Level FlightAware
05:27AM 39.5540 -79.8230 94° East 455 524 35,000  Level FlightAware
05:28AM 39.5450 -79.7140 96° East 456 525 35,000  Level FlightAware
05:28AM 39.5360 -79.5940 96° East 457 526 35,000  Level FlightAware
05:29AM 39.5270 -79.4890 96° East 456 525 35,000  Level FlightAware
05:30AM 39.5190 -79.3880 96° East 456 525 35,000  Level FlightAware
05:30AM 39.5090 -79.2610 96° East 455 524 35,000  Level FlightAware
05:31AM 39.4990 -79.1410 96° East 457 526 35,000  Level FlightAware
05:32AM 39.4910 -79.0410 96° East 458 527 35,000  Level FlightAware
05:33AM 39.4800 -78.9070 96° East 458 527 35,000 -900 Level FlightAware
05:33AM 39.4700 -78.8020 97° East 451 519 33,700 -2,820 Descending FlightAware
05:34AM 39.4610 -78.6940 96° East 457 526 31,300 -3,720 Descending FlightAware
05:35AM 39.4510 -78.5760 96° East 462 532 28,500 -3,660 Descending FlightAware
05:35AM 39.4410 -78.4630 97° East 461 531 26,200 -3,240 Descending FlightAware
05:36AM 39.4300 -78.3430 97° East 466 536 24,000 -2,940 Descending FlightAware
05:37AM 39.4190 -78.2260 97° East 466 536 22,000 -2,940 Descending FlightAware
05:37AM 39.4100 -78.1190 96° East 457 526 20,100 -3,000 Descending FlightAware
05:38AM 39.3990 -78.0070 97° East 443 510 17,900 -3,060 Descending FlightAware
05:39AM 39.3830 -77.8980 101° East 427 491 15,800 -3,000 Descending FlightAware
05:40AM 39.3610 -77.7890 105° East 416 479 13,600 2,040 Descending FlightAware
05:41AM 39.4090 -78.1080 281° West 456 525 19,800 -2,280 Climbing FlightAware
05:41AM 39.3230 -77.5890 102° East 374 430 9,900 -12,360 Descending FlightAware
05:42AM 39.3290 -77.5250 83° East 311 358 9,500 -660 Descending FlightAware
05:42AM 39.3350 -77.4740 81° East 294 338 9,300 -1,260 Descending FlightAware
05:43AM 39.3410 -77.4310 80° East 286 329 8,200 -2,520 Descending FlightAware
05:43AM 39.3270 -77.3470 102° East 282 325 6,300 -2,100 Descending FlightAware
05:44AM 39.3220 -77.3300 111° Southeast 277 319 6,100 -1,020 Descending FlightAware
05:44AM 39.3080 -77.2870 113° Southeast 269 310 5,500 -1,260 Descending FlightAware
05:45AM 39.2920 -77.2380 113° Southeast 262 302 4,800 -1,140 Descending FlightAware
05:45AM 39.2850 -77.2140 111° Southeast 261 300 4,700 -180 Descending FlightAware
05:45AM 39.2750 -77.1840 113° Southeast 260 299 4,700  Level FlightAware
05:46AM 39.2600 -77.1380 113° Southeast 262 302 4,700 -300 Level FlightAware
05:46AM 39.2540 -77.1180 111° Southeast 258 297 4,500 -1,200 Descending FlightAware
05:47AM 39.2400 -77.0720 111° Southeast 255 293 3,800 -840 Descending FlightAware
05:47AM 39.2290 -77.0370 112° Southeast 237 273 3,700 -300 Descending FlightAware
05:47AM 39.2180 -77.0030 113° Southeast 229 264 3,600 -840 Descending FlightAware
05:48AM 39.2080 -76.9700 111° Southeast 229 264 3,000 -1,380 Descending FlightAware
05:48AM 39.1970 -76.9320 110° East 226 260 2,300 -1,260 Descending FlightAware
05:49AM 39.1920 -76.9140 110° East 223 257 2,100 -660 Descending FlightAware
05:49AM 39.1860 -76.8850 105° East 206 237 1,900 -480 Descending FlightAware
05:50AM 39.1840 -76.8470 94° East 180 207 1,700 -360 Descending FlightAware
05:50AM 39.1810 -76.7990 95° East 173 199 1,500 -240 Descending FlightAware
05:51AM 39.1790 -76.7710 95° East 171 197 1,400 -660 Descending FlightAware
05:52AM 39.1833 -76.7167 95° East 137 158 700 -1,020 Descending Potomac TRACON
05:54AM 39.1667 -76.6667 104° East  Level FlightAware Approximate
06:01AM 39.1754 -76.6683 104° East  Level Estimated
06:02AM 39.1754 -76.6683 104° East  Level Estimated
06:03AM 39.1754 -76.6683 104° East  Level Estimated